createdAt,value
2023-04-12T15:06:52.407Z,15.70
2023-04-12T15:09:21.066Z,12.90
2023-04-12T15:11:54.890Z,12.90
2023-04-12T15:14:23.865Z,12.90
2023-04-12T15:16:51.706Z,12.90
2023-04-12T15:19:22.910Z,12.90
2023-04-12T15:21:54.968Z,12.90
2023-04-12T15:24:23.264Z,13.00
2023-04-12T15:26:52.575Z,12.90
2023-04-12T15:29:22.198Z,12.90
2023-04-12T15:31:50.352Z,13.00
2023-04-12T15:34:18.402Z,12.90
2023-04-12T15:36:46.345Z,13.00
2023-04-12T15:39:15.711Z,13.00
2023-04-12T15:41:43.784Z,13.00
2023-04-12T15:44:13.267Z,13.00
2023-04-12T15:46:41.382Z,13.00
2023-04-12T15:49:09.604Z,13.00
2023-04-12T15:51:38.376Z,13.00
2023-04-12T15:54:06.945Z,13.00
2023-04-12T15:56:37.981Z,13.00
2023-04-12T15:59:05.858Z,13.00
2023-04-12T16:01:35.677Z,12.90
2023-04-12T16:04:05.287Z,12.90
2023-04-12T16:06:35.408Z,12.90
2023-04-12T16:09:04.682Z,12.90
2023-04-12T16:11:34.082Z,12.90
2023-04-12T16:14:03.237Z,13.00
2023-04-12T16:16:31.187Z,12.90
2023-04-12T16:19:00.232Z,13.00
2023-04-12T16:21:30.261Z,12.90
2023-04-12T16:23:58.574Z,13.00
2023-04-12T16:26:27.128Z,12.90
2023-04-12T16:28:54.953Z,12.90
2023-04-12T16:31:25.203Z,13.00
2023-04-12T16:33:53.503Z,13.00
2023-04-12T16:36:23.542Z,13.00
2023-04-12T16:38:54.424Z,13.00
2023-04-12T16:41:23.005Z,13.00
2023-04-12T16:43:53.606Z,13.00
2023-04-12T16:46:22.253Z,13.00
2023-04-12T16:48:51.552Z,12.90
2023-04-12T16:51:19.337Z,13.00
2023-04-12T16:53:47.287Z,12.80
2023-04-12T16:56:16.764Z,12.90
2023-04-12T16:58:45.336Z,12.90
2023-04-12T17:01:16.361Z,12.90
2023-04-12T17:03:45.020Z,12.80
2023-04-12T17:06:14.529Z,12.90
2023-04-12T17:08:43.532Z,12.80
2023-04-12T17:43:12.291Z,14.00
2023-04-12T17:45:40.252Z,12.60
2023-04-12T17:48:11.256Z,12.60
2023-04-12T17:50:39.073Z,12.60
2023-04-12T17:53:06.876Z,12.60
2023-04-12T17:55:34.751Z,12.70
2023-04-12T17:58:02.538Z,12.70
2023-04-12T18:00:32.061Z,12.70
2023-04-12T18:02:59.967Z,12.70
2023-04-12T18:05:28.344Z,12.70
2023-04-12T18:07:57.039Z,12.60
2023-04-12T18:10:26.547Z,12.60
2023-04-12T18:12:54.546Z,12.60
2023-04-12T18:15:22.481Z,12.60
2023-04-12T18:17:51.653Z,12.60
2023-04-12T18:20:19.652Z,12.60
2023-04-12T18:22:47.442Z,12.60
2023-04-12T18:25:16.620Z,12.60
2023-04-12T18:27:47.399Z,12.60
2023-04-12T18:30:17.214Z,12.60
2023-04-12T18:32:45.036Z,12.60
2023-04-12T18:35:14.344Z,12.50
2023-04-12T18:37:42.459Z,12.50
2023-04-12T18:40:11.427Z,12.50
2023-04-12T18:42:39.219Z,12.50
2023-04-12T18:45:09.295Z,12.50
2023-04-12T18:47:38.881Z,12.40
2023-04-12T18:50:08.364Z,12.40
2023-04-12T18:52:37.619Z,12.40
2023-04-12T18:55:06.282Z,12.30
2023-04-12T18:57:34.101Z,12.20
2023-04-12T20:15:32.522Z,11.50
2023-04-12T20:18:00.406Z,11.40
2023-04-12T20:20:28.256Z,11.40
2023-04-12T20:22:58.789Z,11.40
2023-04-12T20:25:27.212Z,11.50
2023-04-12T20:27:55.014Z,11.50
2023-04-12T20:30:24.137Z,11.50
2023-04-12T20:32:54.397Z,11.50
2023-04-12T20:35:22.846Z,11.60
2023-04-12T20:37:51.210Z,11.50
2023-04-12T20:40:20.236Z,11.50
2023-04-12T20:42:48.068Z,11.60
2023-04-12T20:45:17.690Z,11.60
2023-04-12T20:47:45.640Z,11.50
2023-04-12T20:50:15.587Z,11.60
2023-04-12T20:52:43.635Z,11.50
2023-04-12T20:55:11.816Z,11.50
2023-04-12T20:57:40.302Z,11.60
2023-04-12T21:00:18.100Z,11.60
2023-04-12T21:02:47.193Z,11.50
2023-04-12T21:05:17.108Z,11.50
2023-04-12T21:07:46.762Z,11.50
2023-04-12T21:10:15.035Z,11.50
2023-04-12T21:12:45.048Z,11.50
2023-04-12T21:15:13.919Z,11.50
2023-04-12T21:17:41.848Z,11.50
2023-04-12T21:20:13.304Z,11.40
2023-04-12T21:22:44.126Z,11.40
2023-04-12T21:25:13.590Z,11.40
2023-04-12T21:27:43.628Z,11.40
2023-04-12T21:30:12.695Z,11.40
2023-04-12T21:32:41.027Z,11.30
2023-04-12T21:35:11.012Z,11.30
2023-04-12T21:37:39.565Z,11.20
2023-04-12T21:40:12.621Z,11.20
2023-04-12T21:42:41.534Z,11.20
2023-04-12T21:45:10.427Z,11.20
2023-04-12T21:47:40.553Z,11.20
2023-04-12T21:50:10.024Z,11.10
2023-04-12T21:52:37.859Z,11.10
2023-04-12T21:55:06.483Z,11.00
